sensor_id;sensor_type;location;lat;lon;timestamp;P1;durP1;ratioP1;P2;durP2;ratioP2
36211;SDS011;22247;48.586;13.492;2023-02-11T00:01:47;46.00;;;19.17;;
36211;SDS011;22247;48.586;13.492;2023-02-11T00:04:13;40.83;;;18.77;;
36211;SDS011;22247;48.586;13.492;2023-02-11T00:06:41;40.60;;;18.58;;
36211;SDS011;22247;48.586;13.492;2023-02-11T00:09:12;41.20;;;19.05;;
36211;SDS011;22247;48.586;13.492;2023-02-11T00:11:40;41.42;;;17.58;;
36211;SDS011;22247;48.586;13.492;2023-02-11T00:14:08;52.42;;;20.40;;
36211;SDS011;22247;48.586;13.492;2023-02-11T00:16:37;41.03;;;16.13;;
36211;SDS011;22247;48.586;13.492;2023-02-11T00:19:06;37.78;;;18.08;;
36211;SDS011;22247;48.586;13.492;2023-02-11T00:21:32;45.63;;;17.58;;
36211;SDS011;22247;48.586;13.492;2023-02-11T00:23:58;44.17;;;17.83;;
36211;SDS011;22247;48.586;13.492;2023-02-11T00:26:30;41.03;;;18.65;;
36211;SDS011;22247;48.586;13.492;2023-02-11T00:29:00;42.03;;;18.50;;
36211;SDS011;22247;48.586;13.492;2023-02-11T00:31:32;37.38;;;17.10;;
36211;SDS011;22247;48.586;13.492;2023-02-11T00:33:58;40.10;;;17.65;;
36211;SDS011;22247;48.586;13.492;2023-02-11T00:36:27;43.95;;;18.10;;
36211;SDS011;22247;48.586;13.492;2023-02-11T00:38:58;47.20;;;19.67;;
36211;SDS011;22247;48.586;13.492;2023-02-11T00:41:26;42.03;;;18.60;;
36211;SDS011;22247;48.586;13.492;2023-02-11T00:43:52;39.40;;;19.02;;
36211;SDS011;22247;48.586;13.492;2023-02-11T00:46:20;43.13;;;18.95;;
36211;SDS011;22247;48.586;13.492;2023-02-11T00:48:47;38.00;;;18.95;;
36211;SDS011;22247;48.586;13.492;2023-02-11T00:51:13;43.65;;;19.17;;
36211;SDS011;22247;48.586;13.492;2023-02-11T00:53:39;47.30;;;19.42;;
36211;SDS011;22247;48.586;13.492;2023-02-11T00:56:05;43.25;;;20.90;;
36211;SDS011;22247;48.586;13.492;2023-02-11T00:58:31;46.22;;;19.33;;
36211;SDS011;22247;48.586;13.492;2023-02-11T01:00:57;42.95;;;17.10;;
36211;SDS011;22247;48.586;13.492;2023-02-11T01:03:23;40.65;;;17.83;;
36211;SDS011;22247;48.586;13.492;2023-02-11T01:05:49;47.08;;;18.60;;
36211;SDS011;22247;48.586;13.492;2023-02-11T01:08:15;55.35;;;22.65;;
36211;SDS011;22247;48.586;13.492;2023-02-11T01:10:41;48.33;;;21.20;;
36211;SDS011;22247;48.586;13.492;2023-02-11T01:13:08;48.40;;;21.52;;
36211;SDS011;22247;48.586;13.492;2023-02-11T01:15:34;47.15;;;19.33;;
36211;SDS011;22247;48.586;13.492;2023-02-11T01:18:02;48.80;;;19.23;;
36211;SDS011;22247;48.586;13.492;2023-02-11T01:20:31;39.58;;;18.20;;
36211;SDS011;22247;48.586;13.492;2023-02-11T01:22:57;42.85;;;18.27;;
36211;SDS011;22247;48.586;13.492;2023-02-11T01:25:25;45.65;;;17.40;;
36211;SDS011;22247;48.586;13.492;2023-02-11T01:27:53;48.22;;;19.98;;
36211;SDS011;22247;48.586;13.492;2023-02-11T01:30:19;45.45;;;19.30;;
36211;SDS011;22247;48.586;13.492;2023-02-11T01:32:45;46.63;;;18.83;;
36211;SDS011;22247;48.586;13.492;2023-02-11T01:35:14;46.35;;;19.20;;
36211;SDS011;22247;48.586;13.492;2023-02-11T01:37:41;46.47;;;18.60;;
36211;SDS011;22247;48.586;13.492;2023-02-11T01:40:11;52.88;;;20.20;;
36211;SDS011;22247;48.586;13.492;2023-02-11T01:42:39;40.03;;;18.92;;
36211;SDS011;22247;48.586;13.492;2023-02-11T01:48:24;41.10;;;18.08;;
36211;SDS011;22247;48.586;13.492;2023-02-11T01:53:23;47.42;;;17.25;;
36211;SDS011;22247;48.586;13.492;2023-02-11T01:56:07;43.63;;;18.33;;
36211;SDS011;22247;48.586;13.492;2023-02-11T01:58:52;46.72;;;20.25;;
36211;SDS011;22247;48.586;13.492;2023-02-11T02:01:26;48.72;;;20.10;;
36211;SDS011;22247;48.586;13.492;2023-02-11T02:03:55;45.55;;;20.25;;
36211;SDS011;22247;48.586;13.492;2023-02-11T02:06:26;48.85;;;20.08;;
36211;SDS011;22247;48.586;13.492;2023-02-11T02:09:05;40.67;;;18.60;;
36211;SDS011;22247;48.586;13.492;2023-02-11T02:11:39;44.40;;;18.65;;
36211;SDS011;22247;48.586;13.492;2023-02-11T02:14:05;41.10;;;18.63;;
36211;SDS011;22247;48.586;13.492;2023-02-11T02:16:34;40.17;;;17.83;;
36211;SDS011;22247;48.586;13.492;2023-02-11T02:34:28;42.30;;;18.02;;
36211;SDS011;22247;48.586;13.492;2023-02-11T02:37:14;38.00;;;16.27;;
36211;SDS011;22247;48.586;13.492;2023-02-11T02:39:45;44.00;;;17.10;;
36211;SDS011;22247;48.586;13.492;2023-02-11T02:42:15;33.53;;;16.55;;
36211;SDS011;22247;48.586;13.492;2023-02-11T02:44:48;43.55;;;19.40;;
36211;SDS011;22247;48.586;13.492;2023-02-11T02:47:16;39.10;;;15.88;;
36211;SDS011;22247;48.586;13.492;2023-02-11T02:49:42;39.78;;;20.20;;
36211;SDS011;22247;48.586;13.492;2023-02-11T02:57:56;39.80;;;17.20;;
36211;SDS011;22247;48.586;13.492;2023-02-11T03:06:20;41.22;;;17.25;;
36211;SDS011;22247;48.586;13.492;2023-02-11T03:09:02;37.60;;;16.02;;
36211;SDS011;22247;48.586;13.492;2023-02-11T03:11:32;32.83;;;17.10;;
36211;SDS011;22247;48.586;13.492;2023-02-11T03:14:04;31.88;;;17.08;;
36211;SDS011;22247;48.586;13.492;2023-02-11T03:16:32;39.20;;;17.02;;
36211;SDS011;22247;48.586;13.492;2023-02-11T03:19:09;45.92;;;17.90;;
36211;SDS011;22247;48.586;13.492;2023-02-11T03:21:42;40.80;;;16.05;;
36211;SDS011;22247;48.586;13.492;2023-02-11T03:24:23;40.70;;;17.52;;
36211;SDS011;22247;48.586;13.492;2023-02-11T03:27:01;38.40;;;16.67;;
36211;SDS011;22247;48.586;13.492;2023-02-11T03:29:42;45.05;;;18.00;;
36211;SDS011;22247;48.586;13.492;2023-02-11T03:34:56;48.00;;;19.35;;
36211;SDS011;22247;48.586;13.492;2023-02-11T03:37:30;50.75;;;19.80;;
36211;SDS011;22247;48.586;13.492;2023-02-11T03:40:06;47.75;;;19.10;;
36211;SDS011;22247;48.586;13.492;2023-02-11T03:42:37;50.83;;;20.98;;
36211;SDS011;22247;48.586;13.492;2023-02-11T03:45:18;48.10;;;18.98;;
36211;SDS011;22247;48.586;13.492;2023-02-11T03:47:47;51.30;;;20.23;;
36211;SDS011;22247;48.586;13.492;2023-02-11T03:50:19;51.58;;;18.65;;
36211;SDS011;22247;48.586;13.492;2023-02-11T03:52:51;47.13;;;18.45;;
36211;SDS011;22247;48.586;13.492;2023-02-11T03:55:19;44.50;;;18.50;;
36211;SDS011;22247;48.586;13.492;2023-02-11T03:57:50;48.08;;;20.48;;
36211;SDS011;22247;48.586;13.492;2023-02-11T04:00:16;46.15;;;19.38;;
36211;SDS011;22247;48.586;13.492;2023-02-11T04:02:42;42.03;;;19.60;;
36211;SDS011;22247;48.586;13.492;2023-02-11T04:05:10;45.88;;;19.08;;
36211;SDS011;22247;48.586;13.492;2023-02-11T04:07:39;44.75;;;19.77;;
36211;SDS011;22247;48.586;13.492;2023-02-11T04:10:07;40.75;;;18.23;;
36211;SDS011;22247;48.586;13.492;2023-02-11T04:12:33;49.67;;;21.30;;
36211;SDS011;22247;48.586;13.492;2023-02-11T04:15:02;55.45;;;21.95;;
36211;SDS011;22247;48.586;13.492;2023-02-11T04:17:28;45.72;;;19.52;;
36211;SDS011;22247;48.586;13.492;2023-02-11T04:19:54;43.60;;;19.20;;
36211;SDS011;22247;48.586;13.492;2023-02-11T04:22:20;42.60;;;17.88;;
36211;SDS011;22247;48.586;13.492;2023-02-11T04:24:50;42.00;;;17.55;;
36211;SDS011;22247;48.586;13.492;2023-02-11T04:27:18;39.67;;;17.73;;
36211;SDS011;22247;48.586;13.492;2023-02-11T04:29:46;41.90;;;19.52;;
36211;SDS011;22247;48.586;13.492;2023-02-11T04:32:16;43.35;;;18.15;;
36211;SDS011;22247;48.586;13.492;2023-02-11T04:34:42;42.25;;;17.45;;
36211;SDS011;22247;48.586;13.492;2023-02-11T04:37:08;45.13;;;18.02;;
36211;SDS011;22247;48.586;13.492;2023-02-11T04:39:36;41.85;;;19.35;;
36211;SDS011;22247;48.586;13.492;2023-02-11T04:42:02;44.88;;;17.67;;
36211;SDS011;22247;48.586;13.492;2023-02-11T04:44:30;47.15;;;18.38;;
36211;SDS011;22247;48.586;13.492;2023-02-11T04:46:56;44.60;;;18.95;;
36211;SDS011;22247;48.586;13.492;2023-02-11T04:49:25;43.65;;;18.77;;
36211;SDS011;22247;48.586;13.492;2023-02-11T04:51:53;40.40;;;16.55;;
36211;SDS011;22247;48.586;13.492;2023-02-11T04:54:21;40.67;;;18.48;;
36211;SDS011;22247;48.586;13.492;2023-02-11T04:56:52;37.58;;;18.50;;
36211;SDS011;22247;48.586;13.492;2023-02-11T04:59:17;40.97;;;18.30;;
36211;SDS011;22247;48.586;13.492;2023-02-11T05:01:43;42.20;;;18.85;;
36211;SDS011;22247;48.586;13.492;2023-02-11T05:04:09;43.05;;;19.08;;
36211;SDS011;22247;48.586;13.492;2023-02-11T05:06:38;47.08;;;20.33;;
36211;SDS011;22247;48.586;13.492;2023-02-11T05:09:09;39.20;;;17.85;;
36211;SDS011;22247;48.586;13.492;2023-02-11T05:11:38;44.58;;;19.38;;
36211;SDS011;22247;48.586;13.492;2023-02-11T05:14:06;41.75;;;19.25;;
36211;SDS011;22247;48.586;13.492;2023-02-11T05:16:35;44.70;;;20.05;;
36211;SDS011;22247;48.586;13.492;2023-02-11T05:19:03;42.95;;;20.05;;
36211;SDS011;22247;48.586;13.492;2023-02-11T05:21:29;42.58;;;19.45;;
36211;SDS011;22247;48.586;13.492;2023-02-11T05:23:55;40.60;;;19.13;;
36211;SDS011;22247;48.586;13.492;2023-02-11T05:26:21;45.80;;;20.80;;
36211;SDS011;22247;48.586;13.492;2023-02-11T05:28:51;53.38;;;21.20;;
36211;SDS011;22247;48.586;13.492;2023-02-11T05:31:19;42.33;;;18.83;;
36211;SDS011;22247;48.586;13.492;2023-02-11T05:33:45;44.53;;;19.65;;
36211;SDS011;22247;48.586;13.492;2023-02-11T05:36:11;45.28;;;17.80;;
36211;SDS011;22247;48.586;13.492;2023-02-11T05:38:43;39.80;;;17.35;;
36211;SDS011;22247;48.586;13.492;2023-02-11T05:41:09;44.10;;;19.75;;
36211;SDS011;22247;48.586;13.492;2023-02-11T05:43:35;38.58;;;18.98;;
36211;SDS011;22247;48.586;13.492;2023-02-11T05:46:02;41.15;;;18.63;;
36211;SDS011;22247;48.586;13.492;2023-02-11T05:48:28;44.75;;;18.65;;
36211;SDS011;22247;48.586;13.492;2023-02-11T05:50:54;38.58;;;18.13;;
36211;SDS011;22247;48.586;13.492;2023-02-11T05:53:20;37.83;;;19.75;;
36211;SDS011;22247;48.586;13.492;2023-02-11T05:55:46;47.85;;;21.17;;
36211;SDS011;22247;48.586;13.492;2023-02-11T05:58:15;49.78;;;20.60;;
36211;SDS011;22247;48.586;13.492;2023-02-11T06:00:40;49.83;;;21.88;;
36211;SDS011;22247;48.586;13.492;2023-02-11T06:03:06;43.83;;;19.05;;
36211;SDS011;22247;48.586;13.492;2023-02-11T06:05:33;45.15;;;21.55;;
36211;SDS011;22247;48.586;13.492;2023-02-11T06:07:58;46.97;;;19.60;;
36211;SDS011;22247;48.586;13.492;2023-02-11T06:10:27;43.17;;;18.77;;
36211;SDS011;22247;48.586;13.492;2023-02-11T06:12:53;41.38;;;18.35;;
36211;SDS011;22247;48.586;13.492;2023-02-11T06:15:19;43.35;;;19.60;;
36211;SDS011;22247;48.586;13.492;2023-02-11T06:17:45;46.83;;;21.55;;
36211;SDS011;22247;48.586;13.492;2023-02-11T06:20:11;47.28;;;18.63;;
36211;SDS011;22247;48.586;13.492;2023-02-11T06:22:39;40.38;;;17.98;;
36211;SDS011;22247;48.586;13.492;2023-02-11T06:25:09;42.40;;;18.90;;
36211;SDS011;22247;48.586;13.492;2023-02-11T06:27:38;48.45;;;21.98;;
36211;SDS011;22247;48.586;13.492;2023-02-11T06:30:04;55.67;;;20.30;;
36211;SDS011;22247;48.586;13.492;2023-02-11T06:32:36;48.22;;;20.40;;
36211;SDS011;22247;48.586;13.492;2023-02-11T06:35:03;46.15;;;19.00;;
36211;SDS011;22247;48.586;13.492;2023-02-11T06:37:29;47.90;;;20.13;;
36211;SDS011;22247;48.586;13.492;2023-02-11T06:39:55;51.70;;;23.40;;
36211;SDS011;22247;48.586;13.492;2023-02-11T06:42:24;53.70;;;23.02;;
36211;SDS011;22247;48.586;13.492;2023-02-11T06:44:52;54.35;;;23.38;;
36211;SDS011;22247;48.586;13.492;2023-02-11T06:47:18;51.00;;;20.20;;
36211;SDS011;22247;48.586;13.492;2023-02-11T06:49:44;52.15;;;22.85;;
36211;SDS011;22247;48.586;13.492;2023-02-11T06:52:12;55.60;;;21.55;;
36211;SDS011;22247;48.586;13.492;2023-02-11T06:54:38;51.30;;;21.23;;
36211;SDS011;22247;48.586;13.492;2023-02-11T06:57:04;50.28;;;21.58;;
36211;SDS011;22247;48.586;13.492;2023-02-11T06:59:30;48.45;;;22.23;;
36211;SDS011;22247;48.586;13.492;2023-02-11T07:01:56;45.13;;;20.50;;
36211;SDS011;22247;48.586;13.492;2023-02-11T07:04:22;52.85;;;22.90;;
36211;SDS011;22247;48.586;13.492;2023-02-11T07:06:48;55.25;;;22.67;;
36211;SDS011;22247;48.586;13.492;2023-02-11T07:09:13;54.88;;;21.83;;
36211;SDS011;22247;48.586;13.492;2023-02-11T07:11:45;46.88;;;21.15;;
36211;SDS011;22247;48.586;13.492;2023-02-11T07:14:12;45.78;;;20.17;;
36211;SDS011;22247;48.586;13.492;2023-02-11T07:16:38;45.88;;;20.23;;
36211;SDS011;22247;48.586;13.492;2023-02-11T07:19:04;44.20;;;20.63;;
36211;SDS011;22247;48.586;13.492;2023-02-11T07:21:30;39.55;;;19.20;;
36211;SDS011;22247;48.586;13.492;2023-02-11T07:23:59;43.60;;;20.95;;
36211;SDS011;22247;48.586;13.492;2023-02-11T07:26:27;44.67;;;18.65;;
36211;SDS011;22247;48.586;13.492;2023-02-11T07:28:55;43.35;;;19.95;;
36211;SDS011;22247;48.586;13.492;2023-02-11T07:31:23;47.05;;;21.10;;
36211;SDS011;22247;48.586;13.492;2023-02-11T07:33:50;48.92;;;22.38;;
36211;SDS011;22247;48.586;13.492;2023-02-11T07:36:19;47.00;;;22.48;;
36211;SDS011;22247;48.586;13.492;2023-02-11T07:38:48;40.33;;;19.38;;
36211;SDS011;22247;48.586;13.492;2023-02-11T07:41:15;46.33;;;20.17;;
36211;SDS011;22247;48.586;13.492;2023-02-11T07:43:43;37.72;;;19.17;;
36211;SDS011;22247;48.586;13.492;2023-02-11T07:46:10;48.13;;;22.48;;
36211;SDS011;22247;48.586;13.492;2023-02-11T07:48:38;50.78;;;22.52;;
36211;SDS011;22247;48.586;13.492;2023-02-11T07:51:08;41.85;;;20.55;;
36211;SDS011;22247;48.586;13.492;2023-02-11T07:53:39;47.25;;;21.40;;
36211;SDS011;22247;48.586;13.492;2023-02-11T07:56:05;47.45;;;20.98;;
36211;SDS011;22247;48.586;13.492;2023-02-11T07:58:33;48.40;;;20.20;;
36211;SDS011;22247;48.586;13.492;2023-02-11T08:01:02;44.10;;;20.33;;
36211;SDS011;22247;48.586;13.492;2023-02-11T08:03:31;43.38;;;21.60;;
36211;SDS011;22247;48.586;13.492;2023-02-11T08:06:00;47.13;;;21.42;;
36211;SDS011;22247;48.586;13.492;2023-02-11T08:08:33;45.30;;;23.30;;
36211;SDS011;22247;48.586;13.492;2023-02-11T08:11:09;52.90;;;21.95;;
36211;SDS011;22247;48.586;13.492;2023-02-11T08:13:42;48.17;;;22.63;;
36211;SDS011;22247;48.586;13.492;2023-02-11T08:18:44;54.08;;;24.38;;
36211;SDS011;22247;48.586;13.492;2023-02-11T08:21:13;53.35;;;24.50;;
36211;SDS011;22247;48.586;13.492;2023-02-11T08:23:40;53.13;;;24.42;;
36211;SDS011;22247;48.586;13.492;2023-02-11T08:26:12;56.83;;;24.95;;
36211;SDS011;22247;48.586;13.492;2023-02-11T08:28:43;50.28;;;25.42;;
36211;SDS011;22247;48.586;13.492;2023-02-11T08:31:13;58.03;;;28.02;;
36211;SDS011;22247;48.586;13.492;2023-02-11T08:33:40;59.47;;;27.10;;
36211;SDS011;22247;48.586;13.492;2023-02-11T08:36:10;57.63;;;29.67;;
36211;SDS011;22247;48.586;13.492;2023-02-11T08:38:40;60.10;;;27.27;;
36211;SDS011;22247;48.586;13.492;2023-02-11T08:41:06;53.72;;;23.85;;
36211;SDS011;22247;48.586;13.492;2023-02-11T08:43:35;57.38;;;25.80;;
36211;SDS011;22247;48.586;13.492;2023-02-11T08:46:05;48.63;;;23.85;;
36211;SDS011;22247;48.586;13.492;2023-02-11T08:48:31;57.45;;;26.48;;
36211;SDS011;22247;48.586;13.492;2023-02-11T08:50:57;56.13;;;25.63;;
36211;SDS011;22247;48.586;13.492;2023-02-11T08:53:24;64.18;;;27.85;;
36211;SDS011;22247;48.586;13.492;2023-02-11T08:55:53;51.25;;;26.30;;
36211;SDS011;22247;48.586;13.492;2023-02-11T08:58:21;60.72;;;27.02;;
36211;SDS011;22247;48.586;13.492;2023-02-11T09:00:47;55.25;;;25.70;;
36211;SDS011;22247;48.586;13.492;2023-02-11T09:03:16;56.45;;;26.92;;
36211;SDS011;22247;48.586;13.492;2023-02-11T09:05:46;52.97;;;26.27;;
36211;SDS011;22247;48.586;13.492;2023-02-11T09:08:13;54.47;;;24.10;;
36211;SDS011;22247;48.586;13.492;2023-02-11T09:10:39;47.08;;;23.42;;
36211;SDS011;22247;48.586;13.492;2023-02-11T09:13:08;54.20;;;24.67;;
36211;SDS011;22247;48.586;13.492;2023-02-11T09:15:37;49.65;;;21.75;;
36211;SDS011;22247;48.586;13.492;2023-02-11T09:18:05;53.55;;;25.17;;
36211;SDS011;22247;48.586;13.492;2023-02-11T09:20:31;57.85;;;27.58;;
36211;SDS011;22247;48.586;13.492;2023-02-11T09:22:57;52.53;;;25.23;;
36211;SDS011;22247;48.586;13.492;2023-02-11T09:25:24;57.47;;;26.23;;
36211;SDS011;22247;48.586;13.492;2023-02-11T09:27:50;51.13;;;24.42;;
36211;SDS011;22247;48.586;13.492;2023-02-11T09:30:17;57.50;;;26.63;;
36211;SDS011;22247;48.586;13.492;2023-02-11T09:32:43;56.95;;;27.00;;
36211;SDS011;22247;48.586;13.492;2023-02-11T09:35:09;56.28;;;27.10;;
36211;SDS011;22247;48.586;13.492;2023-02-11T09:37:35;57.28;;;26.50;;
36211;SDS011;22247;48.586;13.492;2023-02-11T09:40:02;56.28;;;26.10;;
36211;SDS011;22247;48.586;13.492;2023-02-11T09:45:00;60.33;;;27.70;;
36211;SDS011;22247;48.586;13.492;2023-02-11T09:47:35;54.60;;;25.17;;
36211;SDS011;22247;48.586;13.492;2023-02-11T09:50:13;52.88;;;25.67;;
36211;SDS011;22247;48.586;13.492;2023-02-11T09:55:13;60.25;;;27.10;;
36211;SDS011;22247;48.586;13.492;2023-02-11T09:57:51;54.35;;;26.00;;
